Dewitt, Illinois
Current Conditions -  °F | °C
As of 8:41 AM on Monday 22 Dec 2014 (Local Time) from KBMI Reporting Station
Light Rain Light Rain  
Wind Chill: 24°   Ceiling: 3100
Heat Index: 34°   Visibility: 4mi
Dew Point: 32°   Wind: 14mph
Humidity: 93%   Direction: 130°SE
Pressure: 29.83"   Gusts: NA
Location:  40.18°N, 88.79°W
Report Text: KBMI 221441Z 13012KT 4SM -RA BR FEW024 SCT026 BKN031 01/00 A2983 RMK AO2 P0000
Loading
Personal Weather Stations






























Interactive Weather Map New forecast layout! Learn more

10-Day Weather Forecast

Advertisements
Track Severe Weather on mobile